Time;durP1;ratioP1;P1;durP2;ratioP2;P2;SDS_P1;SDS_P2;PMS_P1;PMS_P2;Temp;Humidity;BMP_temperature;BMP_pressure;BME280_temperature;BME280_humidity;BME280_pressure;Samples;Min_cycle;Max_cycle;Signal;HPM_P1;HPM_P2
2023/01/07 00:01:21;;;;;;;;;;;10.60;99.90;;;;;;5017313;28;20019;-70
2023/01/07 00:03:48;;;;;;;;;;;10.70;99.90;;;;;;5034596;28;20016;-70
2023/01/07 00:06:23;;;;;;;;;;;10.30;99.90;;;;;;5033984;28;19927;-70
2023/01/07 00:08:50;;;;;;;;;;;10.60;99.90;;;;;;5052034;28;19921;-70
2023/01/07 00:11:16;;;;;;;;;;;10.80;99.90;;;;;;5052025;28;19921;-70
2023/01/07 00:13:46;;;;;;;;;;;10.60;99.90;;;;;;5034213;28;19921;-70
2023/01/07 00:16:13;;;;;;;;;;;10.50;99.90;;;;;;5017640;28;19924;-70
2023/01/07 00:18:39;;;;;;;;;;;10.80;99.90;;;;;;5017433;28;19924;-70
2023/01/07 00:21:06;;;;;;;;;;;10.70;99.90;;;;;;5017198;28;19924;-70
2023/01/07 00:23:32;;;;;;;;;;;10.70;99.90;;;;;;5017929;28;19928;-70
2023/01/07 00:25:59;;;;;;;;;;;10.90;99.90;;;;;;5016544;28;19925;-70
2023/01/07 00:28:24;;;;;;;;;;;10.80;99.90;;;;;;5017863;28;20274;-70
2023/01/07 00:30:50;;;;;;;;;;;10.90;99.90;;;;;;5034309;28;19921;-70
2023/01/07 00:33:16;;;;;;;;;;;10.90;99.90;;;;;;5051742;28;19921;-70
2023/01/07 00:35:43;;;;;;;;;;;10.80;99.90;;;;;;5037083;28;19921;-70
2023/01/07 00:38:09;;;;;;;;;;;11.40;99.90;;;;;;5055837;28;19925;-70
2023/01/07 00:40:36;;;;;;;;;;;;;;;;;;5055857;28;19924;-70
2023/01/07 00:43:06;;;;;;;;;;;;;;;;;;5038203;28;20326;-70
2023/01/07 00:45:32;;;;;;;;;;;11.30;99.90;;;;;;5021346;28;19920;-70
2023/01/07 00:47:58;;;;;;;;;;;11.00;99.90;;;;;;5037894;28;19928;-70
2023/01/07 00:50:25;;;;;;;;;;;11.10;99.90;;;;;;5021433;28;20357;-70
2023/01/07 00:52:51;;;;;;;;;;;11.30;99.90;;;;;;5036515;28;19924;-70
2023/01/07 00:55:17;;;;;;;;;;;10.90;99.90;;;;;;5037689;28;19975;-70
2023/01/07 00:57:43;;;;;;;;;;;11.20;99.90;;;;;;5037980;28;19920;-70
2023/01/07 01:00:09;;;;;;;;;;;11.30;99.90;;;;;;5037404;28;19933;-70
2023/01/07 01:02:35;;;;;;;;;;;11.20;99.90;;;;;;5037759;28;19968;-70
2023/01/07 01:05:00;;;;;;;;;;;11.10;99.90;;;;;;5021088;28;20418;-70
2023/01/07 01:07:26;;;;;;;;;;;11.00;99.90;;;;;;5054839;28;20290;-70
2023/01/07 01:09:51;;;;;;;;;;;12.10;99.90;;;;;;5037650;28;19920;-70
2023/01/07 01:12:17;;;;;;;;;;;11.30;99.90;;;;;;5037541;28;19933;-70
2023/01/07 01:14:42;;;;;;;;;;;11.40;99.90;;;;;;5037389;28;20382;-71
2023/01/07 01:17:08;;;;;;;;;;;11.40;99.90;;;;;;5053657;28;19927;-70
2023/01/07 01:19:36;;;;;;;;;;;;;;;;;;5055208;28;19966;-70
2023/01/07 01:22:02;;;;;;;;;;;;;;;;;;5054759;28;19925;-70
2023/01/07 01:24:28;;;;;;;;;;;;;;;;;;5036857;28;20504;-70
2023/01/07 01:26:53;;;;;;;;;;;11.40;99.90;;;;;;5036445;28;19920;-70
2023/01/07 01:29:19;;;;;;;;;;;11.10;99.90;;;;;;5037112;28;19960;-70
2023/01/07 01:31:44;;;;;;;;;;;11.40;99.90;;;;;;5037257;28;20390;-70
2023/01/07 01:34:10;;;;;;;;;;;11.40;99.90;;;;;;5054894;28;19983;-70
2023/01/07 01:36:36;;;;;;;;;;;11.50;99.90;;;;;;5036667;28;20011;-71
2023/01/07 01:39:01;;;;;;;;;;;11.00;99.90;;;;;;5036996;28;19921;-70
2023/01/07 01:41:27;;;;;;;;;;;11.50;99.90;;;;;;5054674;28;20402;-70
2023/01/07 01:43:52;;;;;;;;;;;11.50;99.90;;;;;;5037100;28;20379;-71
2023/01/07 01:46:27;;;;;;;;;;;11.50;99.90;;;;;;5053556;28;20019;-70
2023/01/07 01:48:55;;;;;;;;;;;;;;;;;;5036761;28;19928;-70
2023/01/07 01:51:21;;;;;;;;;;;;;;;;;;5054417;28;20042;-73
2023/01/07 01:53:48;;;;;;;;;;;11.70;99.90;;;;;;5020057;28;19964;-73
2023/01/07 01:56:16;;;;;;;;;;;11.50;99.90;;;;;;5036603;28;19971;-70
2023/01/07 01:58:45;;;;;;;;;;;11.10;99.90;;;;;;5054061;28;20004;-70
2023/01/07 02:01:11;;;;;;;;;;;11.50;99.90;;;;;;5036415;28;19925;-70
2023/01/07 02:03:36;;;;;;;;;;;12.20;99.90;;;;;;5036463;28;20000;-70
2023/01/07 02:06:02;;;;;;;;;;;11.20;99.90;;;;;;5036022;28;19921;-70
2023/01/07 02:08:28;;;;;;;;;;;11.50;99.90;;;;;;5036703;28;19932;-70
2023/01/07 02:11:03;;;;;;;;;;;11.40;99.90;;;;;;5019693;28;19970;-70
2023/01/07 02:13:42;;;;;;;;;;;12.10;99.90;;;;;;5036289;28;19921;-70
2023/01/07 02:16:14;;;;;;;;;;;11.40;99.90;;;;;;5035585;28;19928;-70
2023/01/07 02:18:51;;;;;;;;;;;11.60;99.90;;;;;;5036360;28;20397;-70
2023/01/07 02:21:30;;;;;;;;;;;11.40;99.90;;;;;;5036922;28;19924;-70
2023/01/07 02:24:08;;;;;;;;;;;11.30;99.90;;;;;;5054067;28;20283;-70
2023/01/07 02:26:52;;;;;;;;;;;11.60;99.90;;;;;;5053519;28;19920;-70
2023/01/07 02:29:29;;;;;;;;;;;11.50;99.90;;;;;;5036015;28;19920;-70
2023/01/07 02:32:10;;;;;;;;;;;11.50;99.90;;;;;;5053207;28;19921;-71
2023/01/07 02:34:35;;;;;;;;;;;11.50;99.90;;;;;;5035903;28;19921;-70
2023/01/07 02:37:16;;;;;;;;;;;11.30;99.90;;;;;;5035679;28;19920;-70
2023/01/07 02:39:50;;;;;;;;;;;11.40;99.90;;;;;;5035837;28;20386;-70
2023/01/07 02:42:15;;;;;;;;;;;11.70;99.90;;;;;;5053350;28;19995;-70
2023/01/07 02:44:59;;;;;;;;;;;11.70;99.90;;;;;;5053778;28;19921;-70
2023/01/07 02:47:27;;;;;;;;;;;;;;;;;;5035525;28;19921;-70
2023/01/07 02:49:53;;;;;;;;;;;11.70;99.90;;;;;;5035284;28;19928;-70
2023/01/07 02:52:22;;;;;;;;;;;11.60;99.90;;;;;;5035392;28;19925;-70
2023/01/07 02:54:57;;;;;;;;;;;11.60;99.90;;;;;;5018912;28;19925;-70
2023/01/07 02:57:43;;;;;;;;;;;11.60;99.90;;;;;;5018495;28;19921;-72
2023/01/07 03:00:14;;;;;;;;;;;11.50;99.90;;;;;;4995543;28;20015;-72
2023/01/07 03:02:40;;;;;;;;;;;;;;;;;;5035421;28;19925;-72
2023/01/07 03:05:07;;;;;;;;;;;11.60;99.90;;;;;;5034103;28;21586;-72
2023/01/07 03:07:39;;;;;;;;;;;11.60;99.90;;;;;;5035130;28;19928;-72
2023/01/07 03:10:11;;;;;;;;;;;11.70;99.90;;;;;;5035209;28;20357;-72
2023/01/07 03:12:36;;;;;;;;;;;11.40;99.90;;;;;;5033176;28;20004;-72
2023/01/07 03:15:14;;;;;;;;;;;11.60;99.90;;;;;;5015465;28;19995;-72
2023/01/07 03:17:42;;;;;;;;;;;11.20;99.90;;;;;;5015170;28;19921;-72
2023/01/07 03:20:08;;;;;;;;;;;12.40;99.90;;;;;;5017543;28;20024;-72
2023/01/07 03:22:35;;;;;;;;;;;11.50;99.90;;;;;;5034830;28;20394;-72
2023/01/07 03:25:02;;;;;;;;;;;12.00;99.90;;;;;;5034828;28;19921;-72
2023/01/07 03:27:30;;;;;;;;;;;11.40;99.90;;;;;;5034703;28;19932;-72
2023/01/07 03:29:56;;;;;;;;;;;11.60;99.90;;;;;;5034658;28;19920;-72
2023/01/07 03:32:24;;;;;;;;;;;11.70;99.90;;;;;;5034687;28;20459;-72
2023/01/07 03:34:49;;;;;;;;;;;11.40;99.90;;;;;;5052511;28;19928;-72
2023/01/07 03:37:16;;;;;;;;;;;11.70;99.90;;;;;;5034669;28;19921;-72
2023/01/07 03:39:43;;;;;;;;;;;11.40;99.90;;;;;;5034662;28;20053;-72
2023/01/07 03:44:55;;;;;;;;;;;11.40;99.90;;;;;;5034581;28;19928;-70
2023/01/07 03:47:21;;;;;;;;;;;12.20;99.90;;;;;;5034184;28;19927;-71
2023/01/07 03:49:46;;;;;;;;;;;11.50;99.90;;;;;;5034758;28;19921;-71
2023/01/07 03:52:12;;;;;;;;;;;11.60;99.90;;;;;;5017648;28;19924;-71
2023/01/07 03:54:38;;;;;;;;;;;11.50;99.90;;;;;;5034270;28;20306;-71
2023/01/07 03:57:03;;;;;;;;;;;11.60;99.90;;;;;;5034087;28;19927;-71
2023/01/07 03:59:28;;;;;;;;;;;11.30;99.90;;;;;;5034674;28;19924;-71
2023/01/07 04:01:54;;;;;;;;;;;11.30;99.90;;;;;;5052412;28;20402;-71
2023/01/07 04:04:20;;;;;;;;;;;11.20;99.90;;;;;;5034505;28;19921;-71
2023/01/07 04:06:45;;;;;;;;;;;11.40;99.90;;;;;;5034736;28;19920;-71
2023/01/07 04:09:13;;;;;;;;;;;11.10;99.90;;;;;;5017385;28;19928;-71
2023/01/07 04:11:39;;;;;;;;;;;11.40;99.90;;;;;;5034631;28;20011;-71
2023/01/07 04:14:05;;;;;;;;;;;11.20;99.90;;;;;;5034099;28;19925;-71
2023/01/07 04:16:31;;;;;;;;;;;11.50;99.90;;;;;;5033921;28;19920;-71
2023/01/07 04:18:56;;;;;;;;;;;11.60;99.90;;;;;;5017953;28;20298;-71
2023/01/07 04:21:22;;;;;;;;;;;11.30;99.90;;;;;;5051848;28;19929;-71
2023/01/07 04:23:47;;;;;;;;;;;11.40;99.90;;;;;;5034118;28;19925;-71
2023/01/07 04:26:13;;;;;;;;;;;11.20;99.90;;;;;;5017177;28;20352;-71
2023/01/07 04:28:38;;;;;;;;;;;11.10;99.90;;;;;;5051698;28;19931;-71
2023/01/07 04:31:04;;;;;;;;;;;11.30;99.90;;;;;;5034032;28;19921;-71
2023/01/07 04:33:29;;;;;;;;;;;11.30;99.90;;;;;;5033945;28;19921;-71
2023/01/07 04:35:56;;;;;;;;;;;11.10;99.90;;;;;;5050426;28;19928;-71
2023/01/07 04:38:22;;;;;;;;;;;11.50;99.90;;;;;;5034298;28;20324;-71
2023/01/07 04:40:47;;;;;;;;;;;11.30;99.90;;;;;;5033406;28;20027;-71
2023/01/07 04:43:13;;;;;;;;;;;11.30;99.90;;;;;;5033919;28;19936;-71
2023/01/07 04:45:38;;;;;;;;;;;11.30;99.90;;;;;;5051597;28;19920;-71
2023/01/07 04:48:04;;;;;;;;;;;11.20;99.90;;;;;;5033913;28;20555;-71
2023/01/07 04:50:30;;;;;;;;;;;11.40;99.90;;;;;;5033780;28;20361;-71
2023/01/07 04:52:56;;;;;;;;;;;;;;;;;;5017661;28;19921;-71
2023/01/07 04:55:21;;;;;;;;;;;11.20;99.90;;;;;;5033459;28;20290;-71
2023/01/07 04:57:47;;;;;;;;;;;11.20;99.90;;;;;;5051258;28;19925;-71
2023/01/07 05:00:13;;;;;;;;;;;11.10;99.90;;;;;;5033530;28;20015;-71
2023/01/07 05:02:38;;;;;;;;;;;11.20;99.90;;;;;;5033553;28;19932;-71
2023/01/07 05:05:04;;;;;;;;;;;;;;;;;;5033625;28;19921;-71
2023/01/07 05:07:29;;;;;;;;;;;11.50;99.90;;;;;;5033271;28;19943;-71
2023/01/07 05:09:55;;;;;;;;;;;11.30;99.90;;;;;;5017073;28;19921;-71
2023/01/07 05:12:20;;;;;;;;;;;11.30;99.90;;;;;;5033718;28;19925;-71
2023/01/07 05:14:46;;;;;;;;;;;11.20;99.90;;;;;;5051184;28;20401;-71
2023/01/07 05:17:11;;;;;;;;;;;11.00;99.90;;;;;;5032993;28;19928;-71
2023/01/07 05:19:37;;;;;;;;;;;11.10;99.90;;;;;;5033853;28;20197;-71
2023/01/07 05:22:03;;;;;;;;;;;11.30;99.90;;;;;;5036834;28;19925;-71
2023/01/07 05:24:29;;;;;;;;;;;11.40;99.90;;;;;;5037071;28;19921;-71
2023/01/07 05:26:54;;;;;;;;;;;11.30;99.90;;;;;;5036902;28;19928;-71
2023/01/07 05:29:20;;;;;;;;;;;11.50;99.90;;;;;;5055105;28;19921;-71
2023/01/07 05:31:45;;;;;;;;;;;11.20;99.90;;;;;;5036573;28;19921;-71
2023/01/07 05:34:11;;;;;;;;;;;11.70;99.90;;;;;;5036888;28;19927;-71
2023/01/07 05:36:36;;;;;;;;;;;11.40;99.90;;;;;;5054603;28;19924;-71
2023/01/07 05:39:02;;;;;;;;;;;11.20;99.90;;;;;;5037008;28;19924;-71
2023/01/07 05:41:27;;;;;;;;;;;11.40;99.90;;;;;;5036846;28;20456;-71
2023/01/07 05:43:53;;;;;;;;;;;11.00;99.90;;;;;;5020341;28;19928;-71
2023/01/07 05:46:18;;;;;;;;;;;11.60;99.90;;;;;;5030958;28;19921;-71
2023/01/07 05:48:44;;;;;;;;;;;11.20;99.90;;;;;;5048577;28;20004;-71
2023/01/07 05:51:09;;;;;;;;;;;11.10;99.90;;;;;;5036636;28;19921;-71
2023/01/07 05:53:35;;;;;;;;;;;10.80;99.90;;;;;;5036732;28;19921;-71
2023/01/07 05:56:00;;;;;;;;;;;10.90;99.90;;;;;;5036430;28;19921;-71
2023/01/07 05:58:26;;;;;;;;;;;11.20;99.90;;;;;;5054601;28;19921;-71
2023/01/07 06:00:52;;;;;;;;;;;10.90;99.90;;;;;;5036551;28;19925;-71
2023/01/07 06:03:18;;;;;;;;;;;11.20;99.90;;;;;;5019684;28;19932;-71
2023/01/07 06:05:44;;;;;;;;;;;11.10;99.90;;;;;;5036448;28;20305;-71
2023/01/07 06:08:09;;;;;;;;;;;10.80;99.90;;;;;;5036426;28;20078;-71
2023/01/07 06:10:35;;;;;;;;;;;11.20;99.90;;;;;;5036152;28;19921;-71
2023/01/07 06:13:01;;;;;;;;;;;11.00;99.90;;;;;;5036673;28;19921;-71
2023/01/07 06:15:26;;;;;;;;;;;11.00;99.90;;;;;;5036252;28;19928;-71
2023/01/07 06:17:52;;;;;;;;;;;11.00;99.90;;;;;;5053776;28;19921;-71
2023/01/07 06:20:18;;;;;;;;;;;11.70;99.90;;;;;;5035983;28;19933;-70
2023/01/07 06:22:43;;;;;;;;;;;11.00;99.90;;;;;;5019707;28;20271;-71
2023/01/07 06:25:11;;;;;;;;;;;10.80;99.90;;;;;;5053675;28;19979;-71
2023/01/07 06:27:37;;;;;;;;;;;11.10;99.90;;;;;;5035970;28;20390;-71
2023/01/07 06:30:03;;;;;;;;;;;10.80;99.90;;;;;;5036229;28;19928;-71
2023/01/07 06:32:29;;;;;;;;;;;10.90;99.90;;;;;;5035437;28;19921;-71
2023/01/07 06:34:55;;;;;;;;;;;10.80;99.90;;;;;;5019171;28;19927;-71
2023/01/07 06:37:20;;;;;;;;;;;10.90;99.90;;;;;;5052898;28;20122;-71
2023/01/07 06:39:46;;;;;;;;;;;10.90;99.90;;;;;;5035818;28;19920;-71
2023/01/07 06:42:11;;;;;;;;;;;11.10;99.90;;;;;;5035661;28;19933;-71
2023/01/07 06:44:37;;;;;;;;;;;11.10;99.90;;;;;;5035599;28;19928;-71
2023/01/07 06:47:02;;;;;;;;;;;11.10;99.90;;;;;;5035646;28;19921;-71
2023/01/07 06:49:28;;;;;;;;;;;11.40;99.90;;;;;;5035689;28;19964;-71
2023/01/07 06:51:53;;;;;;;;;;;11.10;99.90;;;;;;5035535;28;19964;-71
2023/01/07 06:54:19;;;;;;;;;;;11.30;99.90;;;;;;5035343;28;19928;-71
2023/01/07 06:56:44;;;;;;;;;;;10.90;99.90;;;;;;5051818;28;19921;-71
2023/01/07 06:59:10;;;;;;;;;;;10.90;99.90;;;;;;5035204;28;19920;-71
2023/01/07 07:01:35;;;;;;;;;;;11.00;99.90;;;;;;5035234;28;19931;-71
2023/01/07 07:04:01;;;;;;;;;;;10.90;99.90;;;;;;5019823;28;19990;-71
2023/01/07 07:06:26;;;;;;;;;;;10.90;99.90;;;;;;5032930;28;19921;-71
2023/01/07 07:08:52;;;;;;;;;;;10.80;99.90;;;;;;5034465;28;20374;-71
2023/01/07 07:11:18;;;;;;;;;;;;;;;;;;5053150;28;20011;-71
2023/01/07 07:13:43;;;;;;;;;;;10.70;99.90;;;;;;5018696;28;20373;-71
2023/01/07 07:16:09;;;;;;;;;;;10.90;99.90;;;;;;5051542;28;19947;-71
2023/01/07 07:18:34;;;;;;;;;;;10.80;99.90;;;;;;5035055;28;19924;-71
2023/01/07 07:21:00;;;;;;;;;;;10.90;99.90;;;;;;5034684;28;19928;-71
2023/01/07 07:23:25;;;;;;;;;;;10.90;99.90;;;;;;5052486;28;19936;-71
2023/01/07 07:25:51;;;;;;;;;;;10.60;99.90;;;;;;5051456;28;19921;-71
2023/01/07 07:28:16;;;;;;;;;;;11.00;99.90;;;;;;5034825;28;20406;-71
2023/01/07 07:30:42;;;;;;;;;;;11.00;99.90;;;;;;5034747;28;19921;-71
2023/01/07 07:33:07;;;;;;;;;;;11.00;99.90;;;;;;5051346;28;19924;-71
2023/01/07 07:35:33;;;;;;;;;;;10.90;99.90;;;;;;5034500;28;19921;-71
2023/01/07 07:37:59;;;;;;;;;;;11.80;99.90;;;;;;5034425;28;19921;-71
2023/01/07 07:40:24;;;;;;;;;;;10.90;99.90;;;;;;5052018;28;19939;-71
2023/01/07 07:42:50;;;;;;;;;;;11.10;99.90;;;;;;5033723;28;19922;-72
2023/01/07 07:45:18;;;;;;;;;;;11.00;99.90;;;;;;5033856;28;19971;-71
2023/01/07 07:47:44;;;;;;;;;;;11.00;99.90;;;;;;5052347;28;19927;-71
2023/01/07 07:50:09;;;;;;;;;;;10.80;99.90;;;;;;5034517;28;19924;-71
2023/01/07 07:52:35;;;;;;;;;;;11.00;99.90;;;;;;5034327;28;19920;-71
2023/01/07 07:55:00;;;;;;;;;;;10.80;99.90;;;;;;5034450;28;19975;-71
2023/01/07 07:57:26;;;;;;;;;;;10.80;99.90;;;;;;5051741;28;19921;-71
2023/01/07 07:59:51;;;;;;;;;;;11.00;99.90;;;;;;5052212;28;19982;-71
2023/01/07 08:02:18;;;;;;;;;;;11.00;99.90;;;;;;5034174;28;19925;-71
2023/01/07 08:04:44;;;;;;;;;;;10.60;99.90;;;;;;5051884;28;19921;-71
2023/01/07 08:07:10;;;;;;;;;;;10.70;99.90;;;;;;5017396;28;19921;-71
2023/01/07 08:09:36;;;;;;;;;;;10.60;99.90;;;;;;5034148;28;19922;-71
2023/01/07 08:12:01;;;;;;;;;;;10.80;99.90;;;;;;5034166;28;20340;-71
2023/01/07 08:14:27;;;;;;;;;;;10.70;99.90;;;;;;5034125;28;19963;-71
2023/01/07 08:16:52;;;;;;;;;;;11.10;99.90;;;;;;5051520;28;20266;-71
2023/01/07 08:19:18;;;;;;;;;;;10.80;99.90;;;;;;5034357;28;20318;-71
2023/01/07 08:21:43;;;;;;;;;;;10.70;99.90;;;;;;5078275;22;19978;-71
2023/01/07 08:24:09;;;;;;;;;;;10.60;99.90;;;;;;5094382;28;20308;-73
2023/01/07 08:26:34;;;;;;;;;;;10.80;99.90;;;;;;5093414;28;20393;-73
2023/01/07 08:29:00;;;;;;;;;;;10.80;99.90;;;;;;5094281;28;19920;-73
2023/01/07 08:31:25;;;;;;;;;;;10.70;99.90;;;;;;5094066;28;19996;-73
2023/01/07 08:33:51;;;;;;;;;;;10.70;99.90;;;;;;5112727;28;19919;-73
2023/01/07 08:36:16;;;;;;;;;;;10.80;99.90;;;;;;5094036;28;19965;-74
2023/01/07 08:38:43;;;;;;;;;;;10.70;99.90;;;;;;5094508;28;19973;-73
2023/01/07 08:41:08;;;;;;;;;;;10.90;99.90;;;;;;5112274;28;19977;-73
2023/01/07 08:43:34;;;;;;;;;;;10.80;99.90;;;;;;5077263;28;19923;-73
2023/01/07 08:46:00;;;;;;;;;;;10.60;99.90;;;;;;5093769;28;19920;-73
2023/01/07 08:48:25;;;;;;;;;;;10.80;99.90;;;;;;5094382;28;20376;-73
2023/01/07 08:50:52;;;;;;;;;;;11.20;99.90;;;;;;5077303;28;20006;-74
2023/01/07 08:53:18;;;;;;;;;;;10.60;99.90;;;;;;5093866;28;19959;-74
2023/01/07 08:55:43;;;;;;;;;;;10.70;99.90;;;;;;5114255;28;19969;-74
2023/01/07 08:58:09;;;;;;;;;;;10.60;99.90;;;;;;5097938;28;20338;-74
2023/01/07 09:00:34;;;;;;;;;;;10.90;99.90;;;;;;5115457;28;20446;-74
2023/01/07 09:03:01;;;;;;;;;;;10.60;99.90;;;;;;5088950;28;19928;-73
2023/01/07 09:05:26;;;;;;;;;;;10.80;99.90;;;;;;5069390;28;20316;-73
2023/01/07 09:07:52;;;;;;;;;;;10.70;99.90;;;;;;5077651;28;19920;-73
2023/01/07 09:10:18;;;;;;;;;;;10.90;99.90;;;;;;5095468;28;19924;-73
2023/01/07 09:12:43;;;;;;;;;;;10.70;99.90;;;;;;5112206;28;19919;-74
2023/01/07 09:15:09;;;;;;;;;;;10.70;99.90;;;;;;5097178;28;19920;-72
2023/01/07 09:17:35;;;;;;;;;;;10.60;99.90;;;;;;5065033;28;19931;-74
2023/01/07 09:20:02;;;;;;;;;;;10.90;99.90;;;;;;5095991;28;19920;-73
2023/01/07 09:22:29;;;;;;;;;;;10.70;99.90;;;;;;5114466;28;19927;-73
2023/01/07 09:24:54;;;;;;;;;;;10.70;99.90;;;;;;5115616;28;19930;-73
2023/01/07 09:27:21;;;;;;;;;;;10.70;99.90;;;;;;5097197;28;19920;-73
2023/01/07 09:29:47;;;;;;;;;;;10.70;99.90;;;;;;5079038;28;20335;-73
2023/01/07 09:32:12;;;;;;;;;;;10.90;99.90;;;;;;5116757;27;19924;-73
2023/01/07 09:34:38;;;;;;;;;;;10.80;99.90;;;;;;5088061;28;20424;-74
2023/01/07 09:37:04;;;;;;;;;;;10.90;99.90;;;;;;5105911;27;20400;-73
2023/01/07 09:39:29;;;;;;;;;;;10.80;99.90;;;;;;5101040;28;19930;-73
2023/01/07 09:42:03;;;;;;;;;;;10.80;99.90;;;;;;5127857;27;19927;-74
2023/01/07 09:44:40;;;;;;;;;;;10.70;99.90;;;;;;5101944;28;20018;-73
2023/01/07 09:47:07;;;;;;;;;;;10.80;99.90;;;;;;5128805;27;19975;-73
2023/01/07 09:49:33;;;;;;;;;;;10.70;99.90;;;;;;5102232;28;20389;-73
2023/01/07 09:52:03;;;;;;;;;;;10.70;99.90;;;;;;5086395;27;19926;-72
2023/01/07 09:54:29;;;;;;;;;;;10.70;99.90;;;;;;5108759;27;19919;-72
2023/01/07 09:56:55;;;;;;;;;;;10.80;99.90;;;;;;5102827;27;20666;-73
2023/01/07 09:59:20;;;;;;;;;;;10.80;99.90;;;;;;5126985;27;19926;-72
2023/01/07 10:02:12;;;;;;;;;;;10.90;99.90;;;;;;5097907;28;20436;-72
2023/01/07 10:04:40;;;;;;;;;;;11.10;99.90;;;;;;5083567;28;20019;-73
2023/01/07 10:07:21;;;;;;;;;;;11.00;99.90;;;;;;5087313;28;19928;-73
2023/01/07 10:09:53;;;;;;;;;;;10.90;99.90;;;;;;5110020;27;19919;-74
2023/01/07 10:12:21;;;;;;;;;;;11.00;99.90;;;;;;5095004;28;20262;-73
2023/01/07 10:14:54;;;;;;;;;;;10.70;99.90;;;;;;5109900;27;20419;-73
2023/01/07 10:17:38;;;;;;;;;;;10.90;99.90;;;;;;5080622;27;20002;-73
2023/01/07 10:20:25;;;;;;;;;;;10.90;99.90;;;;;;5115281;27;20259;-73
2023/01/07 10:22:53;;;;;;;;;;;10.90;99.90;;;;;;5100265;27;20230;-73
2023/01/07 10:25:21;;;;;;;;;;;10.90;99.90;;;;;;5094839;28;19927;-73
2023/01/07 10:27:47;;;;;;;;;;;10.90;99.90;;;;;;5092756;27;19970;-73
2023/01/07 10:30:22;;;;;;;;;;;10.90;99.90;;;;;;5089016;28;19919;-72
2023/01/07 10:32:49;;;;;;;;;;;11.10;99.90;;;;;;5107237;27;19928;-71
2023/01/07 10:35:18;;;;;;;;;;;11.00;99.90;;;;;;5114303;27;20388;-71
2023/01/07 10:37:43;;;;;;;;;;;11.10;99.90;;;;;;5080391;28;19924;-72
2023/01/07 10:40:12;;;;;;;;;;;11.80;99.90;;;;;;5092852;27;19949;-73
2023/01/07 10:42:49;;;;;;;;;;;11.10;99.90;;;;;;5096775;27;19928;-72
2023/01/07 10:45:15;;;;;;;;;;;11.30;99.90;;;;;;5104820;27;19920;-71
2023/01/07 10:47:43;;;;;;;;;;;11.20;99.90;;;;;;5107699;27;20019;-72
2023/01/07 10:50:27;;;;;;;;;;;11.20;99.90;;;;;;5087800;27;20452;-72
2023/01/07 10:52:56;;;;;;;;;;;11.30;99.90;;;;;;5117548;27;19919;-72
2023/01/07 10:55:33;;;;;;;;;;;11.40;99.90;;;;;;5094018;28;20289;-71
2023/01/07 10:57:58;;;;;;;;;;;11.40;99.90;;;;;;5080656;28;19919;-71
2023/01/07 11:00:24;;;;;;;;;;;11.40;99.90;;;;;;5113108;27;19928;-72
2023/01/07 11:02:53;;;;;;;;;;;11.50;99.90;;;;;;5075116;28;20014;-72
2023/01/07 11:05:20;;;;;;;;;;;11.50;99.90;;;;;;5078709;28;19970;-72
2023/01/07 11:07:48;;;;;;;;;;;11.80;99.90;;;;;;5111231;27;19924;-72
2023/01/07 11:10:24;;;;;;;;;;;11.70;99.90;;;;;;5114866;27;19923;-72
2023/01/07 11:12:52;;;;;;;;;;;11.60;99.90;;;;;;5094233;27;20305;-71
2023/01/07 11:15:18;;;;;;;;;;;;;;;;;;5093351;28;19924;-71
2023/01/07 11:18:03;;;;;;;;;;;11.80;99.90;;;;;;5073510;28;19950;-72
2023/01/07 11:20:49;;;;;;;;;;;11.90;99.90;;;;;;5094940;27;20376;-72
2023/01/07 11:23:35;;;;;;;;;;;12.00;99.90;;;;;;5082701;27;19930;-72
2023/01/07 11:26:06;;;;;;;;;;;11.90;99.90;;;;;;5113120;27;19919;-71
2023/01/07 11:28:32;;;;;;;;;;;11.70;99.90;;;;;;5132678;27;19919;-72
2023/01/07 11:30:58;;;;;;;;;;;;;;;;;;5077303;28;19980;-72
2023/01/07 11:33:45;;;;;;;;;;;11.80;99.90;;;;;;5095017;28;20485;-72
2023/01/07 11:36:11;;;;;;;;;;;;;;;;;;5112864;28;20377;-72
2023/01/07 11:38:37;;;;;;;;;;;11.80;99.90;;;;;;5094847;28;19926;-72
2023/01/07 11:41:04;;;;;;;;;;;11.90;99.90;;;;;;5112931;28;19919;-72
2023/01/07 11:43:31;;;;;;;;;;;11.80;99.90;;;;;;5112909;28;19930;-72
2023/01/07 11:46:17;;;;;;;;;;;11.80;99.90;;;;;;5077627;28;20047;-72
2023/01/07 11:48:59;;;;;;;;;;;11.80;99.90;;;;;;5094503;28;19920;-72
2023/01/07 11:51:25;;;;;;;;;;;11.80;99.90;;;;;;5112875;28;19920;-72
2023/01/07 11:53:54;;;;;;;;;;;11.80;99.90;;;;;;5094742;28;19926;-72
2023/01/07 11:56:19;;;;;;;;;;;11.70;99.90;;;;;;5094513;28;20030;-71
2023/01/07 11:58:46;;;;;;;;;;;11.80;99.90;;;;;;5094640;28;20397;-71
2023/01/07 12:01:13;;;;;;;;;;;11.80;99.90;;;;;;5094491;28;19920;-72
2023/01/07 12:03:41;;;;;;;;;;;11.70;99.90;;;;;;5094813;28;19931;-72
2023/01/07 12:06:27;;;;;;;;;;;11.90;99.90;;;;;;5112179;28;20027;-72
2023/01/07 12:09:16;;;;;;;;;;;11.80;99.90;;;;;;5093861;28;19926;-71
2023/01/07 12:11:43;;;;;;;;;;;11.80;99.90;;;;;;5112770;28;19927;-72
2023/01/07 12:14:19;;;;;;;;;;;11.60;99.90;;;;;;5096749;28;19920;-72
2023/01/07 12:16:45;;;;;;;;;;;11.80;99.90;;;;;;5094824;28;19920;-72
2023/01/07 12:19:19;;;;;;;;;;;11.90;99.90;;;;;;5112843;28;19973;-72
2023/01/07 12:21:54;;;;;;;;;;;11.90;99.90;;;;;;5094025;28;19920;-72
2023/01/07 12:24:30;;;;;;;;;;;11.90;99.90;;;;;;5113264;28;19924;-72
2023/01/07 12:27:15;;;;;;;;;;;12.00;99.90;;;;;;5093950;28;20325;-72
2023/01/07 12:30:05;;;;;;;;;;;12.20;99.90;;;;;;5063717;28;20045;-72
2023/01/07 12:32:45;;;;;;;;;;;11.90;99.90;;;;;;5116864;28;19927;-73
2023/01/07 12:35:17;;;;;;;;;;;11.90;99.90;;;;;;5098513;28;20331;-71
2023/01/07 12:37:47;;;;;;;;;;;12.00;99.90;;;;;;5098644;28;19943;-72
2023/01/07 12:40:12;;;;;;;;;;;12.00;99.90;;;;;;5081685;28;19981;-72
2023/01/07 12:42:40;;;;;;;;;;;12.00;99.90;;;;;;5116585;28;19924;-72
2023/01/07 12:45:15;;;;;;;;;;;11.80;99.90;;;;;;5116432;28;20022;-71
2023/01/07 12:47:50;;;;;;;;;;;12.00;99.90;;;;;;5081222;28;20010;-73
2023/01/07 12:50:19;;;;;;;;;;;12.00;99.90;;;;;;5098505;28;20274;-72
2023/01/07 12:52:47;;;;;;;;;;;12.10;99.90;;;;;;5098012;28;19927;-72
2023/01/07 12:55:21;;;;;;;;;;;12.10;99.90;;;;;;5097523;28;19969;-70
2023/01/07 12:57:54;;;;;;;;;;;12.00;99.90;;;;;;5098067;28;19920;-72
2023/01/07 13:00:22;;;;;;;;;;;12.20;99.90;;;;;;5097831;28;19919;-72
2023/01/07 13:03:00;;;;;;;;;;;11.90;99.90;;;;;;5097456;28;19947;-72
2023/01/07 13:05:37;;;;;;;;;;;12.00;99.90;;;;;;5095543;28;20373;-72
2023/01/07 13:08:23;;;;;;;;;;;12.00;99.90;;;;;;5115227;28;19924;-72
2023/01/07 13:11:12;;;;;;;;;;;12.40;99.90;;;;;;5093590;28;19924;-71
2023/01/07 13:13:40;;;;;;;;;;;12.00;99.90;;;;;;5094778;28;19927;-72
2023/01/07 13:16:09;;;;;;;;;;;12.00;99.90;;;;;;5076430;28;20008;-72
2023/01/07 13:18:35;;;;;;;;;;;11.90;99.90;;;;;;5095568;28;19927;-73
2023/01/07 13:21:08;;;;;;;;;;;11.90;99.90;;;;;;5092792;28;19920;-72
2023/01/07 13:23:46;;;;;;;;;;;11.80;99.90;;;;;;5092302;28;19932;-72
2023/01/07 13:26:22;;;;;;;;;;;12.00;99.90;;;;;;5103252;28;19927;-72
2023/01/07 13:28:47;;;;;;;;;;;11.80;99.90;;;;;;5071100;28;19924;-72
2023/01/07 13:31:28;;;;;;;;;;;11.80;99.90;;;;;;5076987;28;20007;-72
2023/01/07 13:34:02;;;;;;;;;;;11.70;99.90;;;;;;5069822;28;19966;-73
2023/01/07 13:36:27;;;;;;;;;;;11.70;99.90;;;;;;5086218;28;19920;-73
2023/01/07 13:38:58;;;;;;;;;;;11.70;99.90;;;;;;5115619;28;19920;-72
2023/01/07 13:41:27;;;;;;;;;;;11.70;99.90;;;;;;5071718;28;19927;-73
2023/01/07 13:43:52;;;;;;;;;;;11.70;99.90;;;;;;5075004;28;19973;-73
2023/01/07 13:46:20;;;;;;;;;;;11.60;99.90;;;;;;5085147;28;20323;-71
2023/01/07 13:48:48;;;;;;;;;;;11.60;99.90;;;;;;5088294;28;20002;-72
2023/01/07 13:51:13;;;;;;;;;;;11.60;99.90;;;;;;5087773;28;19924;-73
2023/01/07 13:53:40;;;;;;;;;;;11.70;99.90;;;;;;5087184;28;20273;-72
2023/01/07 13:56:26;;;;;;;;;;;11.70;99.90;;;;;;5089670;28;19924;-72
2023/01/07 13:58:54;;;;;;;;;;;11.70;99.90;;;;;;5086411;28;19924;-73
2023/01/07 14:01:20;;;;;;;;;;;11.50;99.90;;;;;;5088776;28;19968;-72
2023/01/07 14:03:46;;;;;;;;;;;11.40;99.90;;;;;;5086745;28;20359;-72
2023/01/07 14:06:14;;;;;;;;;;;11.40;99.90;;;;;;5069351;28;20001;-72
2023/01/07 14:08:40;;;;;;;;;;;11.60;99.90;;;;;;5087331;28;20315;-72
2023/01/07 14:11:05;;;;;;;;;;;11.50;99.90;;;;;;5085821;28;20020;-72
2023/01/07 14:13:36;;;;;;;;;;;11.40;99.90;;;;;;5090034;28;19920;-72
2023/01/07 14:16:08;;;;;;;;;;;11.40;99.90;;;;;;5081750;28;20010;-72
2023/01/07 14:18:36;;;;;;;;;;;11.50;99.90;;;;;;5107045;28;19920;-72
2023/01/07 14:21:10;;;;;;;;;;;11.60;99.90;;;;;;5104966;28;19920;-73
2023/01/07 14:23:41;;;;;;;;;;;11.40;99.90;;;;;;5068185;22;19932;-70
2023/01/07 14:26:07;;;;;;;;;;;11.50;99.90;;;;;;5051956;28;19921;-70
2023/01/07 14:28:32;;;;;;;;;;;11.30;99.90;;;;;;5034486;28;20415;-70
2023/01/07 14:30:58;;;;;;;;;;;11.40;99.90;;;;;;5034276;28;19920;-70
2023/01/07 14:33:23;;;;;;;;;;;11.50;99.90;;;;;;5048910;28;19972;-70